Time;durP1;ratioP1;P1;durP2;ratioP2;P2;SDS_P1;SDS_P2;PMS_P1;PMS_P2;Temp;Humidity;BMP_temperature;BMP_pressure;BME280_temperature;BME280_humidity;BME280_pressure;Samples;Min_cycle;Max_cycle;Signal;HPM_P1;HPM_P2
2021/06/24 00:01:21;;;;;;;6.90;2.60;;;;;;;;;;4981431;28;20060;-83
2021/06/24 00:04:06;;;;;;;5.07;2.17;;;;;;;;;;4989334;28;20384;-84
2021/06/24 00:06:51;;;;;;;4.13;2.10;;;;;;;;;;4972099;28;20026;-84
2021/06/24 00:09:36;;;;;;;4.10;2.33;;;;;;;;;;4983628;28;20229;-83
2021/06/24 00:12:22;;;;;;;6.20;2.35;;;;;;;;;;4982547;28;20033;-84
2021/06/24 00:15:08;;;;;;;5.03;2.03;;;;;;;;;;4983285;28;20042;-83
2021/06/24 00:17:53;;;;;;;3.40;2.63;;;;;;;;;;4978943;28;20089;-83
2021/06/24 00:20:39;;;;;;;4.00;2.15;;;;;;;;;;4972717;28;20057;-83
2021/06/24 00:23:25;;;;;;;4.72;2.25;;;;;;;;;;4986249;28;20054;-83
2021/06/24 00:26:10;;;;;;;2.65;2.40;;;;;;;;;;4989273;28;20354;-83
2021/06/24 00:28:55;;;;;;;3.83;2.60;;;;;;;;;;4979965;28;20026;-83
2021/06/24 00:31:40;;;;;;;5.15;3.10;;;;;;;;;;4978466;28;20392;-82
2021/06/24 00:34:26;;;;;;;7.32;2.45;;;;;;;;;;4983237;28;20029;-83
2021/06/24 00:37:11;;;;;;;4.25;2.78;;;;;;;;;;4966812;28;20030;-82
2021/06/24 00:39:57;;;;;;;5.38;2.15;;;;;;;;;;4984258;28;20026;-82
2021/06/24 00:42:42;;;;;;;6.55;2.55;;;;;;;;;;4978853;28;20022;-82
2021/06/24 00:45:28;;;;;;;3.70;2.20;;;;;;;;;;4989496;28;20303;-82
2021/06/24 00:48:13;;;;;;;3.50;2.53;;;;;;;;;;4983972;28;20088;-83
2021/06/24 00:50:59;;;;;;;3.95;2.60;;;;;;;;;;4983602;28;20108;-83
2021/06/24 00:53:44;;;;;;;4.28;2.80;;;;;;;;;;4975896;28;20036;-83
2021/06/24 00:56:32;;;;;;;5.00;2.55;;;;;;;;;;4983923;28;20115;-83
2021/06/24 00:59:18;;;;;;;6.00;2.93;;;;;;;;;;4980581;28;20105;-83
2021/06/24 01:02:05;;;;;;;5.40;2.92;;;;;;;;;;4976665;28;20018;-83
2021/06/24 01:04:50;;;;;;;4.50;3.00;;;;;;;;;;4986528;28;20018;-82
2021/06/24 01:07:36;;;;;;;4.82;3.05;;;;;;;;;;4977645;28;20385;-82
2021/06/24 01:10:21;;;;;;;6.38;2.92;;;;;;;;;;4982489;28;20026;-82
2021/06/24 01:13:06;;;;;;;4.50;2.92;;;;;;;;;;4981241;28;20022;-83
2021/06/24 01:15:52;;;;;;;4.63;3.25;;;;;;;;;;4985451;28;20176;-82
2021/06/24 01:18:37;;;;;;;5.55;3.90;;;;;;;;;;4979101;28;20034;-82
2021/06/24 01:21:22;;;;;;;6.88;4.10;;;;;;;;;;4981967;28;20139;-82
2021/06/24 01:24:08;;;;;;;4.82;3.80;;;;;;;;;;4981103;28;20057;-82
2021/06/24 01:26:53;;;;;;;8.35;3.90;;;;;;;;;;4989032;28;20058;-83
2021/06/24 01:29:39;;;;;;;5.72;3.85;;;;;;;;;;4982502;28;20092;-82
2021/06/24 01:32:33;;;;;;;5.07;3.70;;;;;;;;;;4985827;28;20536;-82
2021/06/24 01:36:01;;;;;;;6.10;3.60;;;;;;;;;;4973721;28;20021;-83
2021/06/24 01:38:42;;;;;;;3.88;3.30;;;;;;;;;;4984178;28;20026;-82
2021/06/24 01:41:27;;;;;;;7.13;3.95;;;;;;;;;;4985010;28;20540;-83
2021/06/24 01:44:26;;;;;;;5.78;3.60;;;;;;;;;;4985052;28;20486;-82
2021/06/24 01:47:12;;;;;;;7.10;4.10;;;;;;;;;;4975599;28;20026;-82
2021/06/24 01:49:57;;;;;;;3.78;3.20;;;;;;;;;;4969150;28;20042;-81
2021/06/24 01:52:43;;;;;;;4.55;3.85;;;;;;;;;;4987576;28;20061;-82
2021/06/24 01:55:32;;;;;;;4.28;3.30;;;;;;;;;;4981145;28;20040;-82
2021/06/24 01:58:21;;;;;;;4.90;3.35;;;;;;;;;;4982102;28;20041;-83
2021/06/24 02:01:06;;;;;;;4.05;3.10;;;;;;;;;;4979803;28;20030;-82
2021/06/24 02:03:52;;;;;;;5.10;3.55;;;;;;;;;;4968244;28;20049;-82
2021/06/24 02:06:37;;;;;;;7.20;3.13;;;;;;;;;;4964992;28;20065;-83
2021/06/24 02:09:23;;;;;;;5.18;3.00;;;;;;;;;;4974985;28;20121;-82
2021/06/24 02:12:08;;;;;;;3.95;3.15;;;;;;;;;;4985241;28;20080;-81
2021/06/24 02:14:53;;;;;;;4.72;2.95;;;;;;;;;;4978970;28;20520;-82
2021/06/24 02:17:39;;;;;;;3.75;2.40;;;;;;;;;;4989628;28;20034;-83
2021/06/24 02:20:24;;;;;;;3.95;2.40;;;;;;;;;;4976079;28;20041;-83
2021/06/24 02:23:10;;;;;;;5.47;2.78;;;;;;;;;;4983302;28;20112;-84
2021/06/24 02:25:55;;;;;;;4.70;2.88;;;;;;;;;;4982109;28;20411;-83
2021/06/24 02:28:40;;;;;;;7.55;2.83;;;;;;;;;;4982555;28;20022;-83
2021/06/24 02:31:27;;;;;;;4.60;2.40;;;;;;;;;;4970516;28;20053;-83
2021/06/24 02:34:13;;;;;;;3.85;2.80;;;;;;;;;;4975576;28;20092;-84
2021/06/24 02:36:58;;;;;;;4.10;2.53;;;;;;;;;;4979853;28;20030;-84
2021/06/24 02:39:44;;;;;;;4.70;2.60;;;;;;;;;;4984502;28;20089;-83
2021/06/24 02:42:29;;;;;;;3.45;2.50;;;;;;;;;;4988603;28;20025;-84
2021/06/24 02:45:14;;;;;;;4.20;2.45;;;;;;;;;;4991642;28;20025;-83
2021/06/24 02:47:59;;;;;;;4.63;2.42;;;;;;;;;;4977524;28;20022;-83
2021/06/24 02:50:45;;;;;;;4.55;3.00;;;;;;;;;;4987197;28;20492;-82
2021/06/24 02:53:30;;;;;;;4.70;2.97;;;;;;;;;;4978139;28;20046;-81
2021/06/24 02:56:15;;;;;;;2.58;2.38;;;;;;;;;;4978515;28;20018;-82
2021/06/24 02:59:00;;;;;;;5.22;2.80;;;;;;;;;;4991255;28;20061;-81
2021/06/24 03:07:03;;;;;;;7.05;3.42;;;;;;;;;;5394940;22;20049;-82
2021/06/24 03:09:48;;;;;;;6.60;3.42;;;;;;;;;;5015221;28;20097;-83
2021/06/24 03:12:33;;;;;;;7.25;3.15;;;;;;;;;;5011719;28;20029;-84
2021/06/24 03:15:19;;;;;;;7.10;3.72;;;;;;;;;;4992685;28;20025;-83
2021/06/24 03:18:04;;;;;;;4.50;3.13;;;;;;;;;;5009699;28;20124;-83
2021/06/24 03:21:03;;;;;;;4.20;3.20;;;;;;;;;;5013715;28;20340;-84
2021/06/24 03:23:55;;;;;;;10.70;3.80;;;;;;;;;;5008257;28;20056;-83
2021/06/24 03:26:40;;;;;;;7.25;3.10;;;;;;;;;;5024169;28;20128;-83
2021/06/24 03:29:25;;;;;;;4.78;3.25;;;;;;;;;;5011468;28;20028;-83
2021/06/24 03:32:10;;;;;;;3.75;3.30;;;;;;;;;;5013461;28;20021;-83
2021/06/24 03:34:56;;;;;;;4.90;3.50;;;;;;;;;;5016073;28;20039;-83
2021/06/24 03:37:41;;;;;;;4.90;2.90;;;;;;;;;;5007785;28;20033;-84
2021/06/24 03:40:26;;;;;;;6.78;3.13;;;;;;;;;;5012571;28;20045;-84
2021/06/24 03:43:11;;;;;;;6.13;3.10;;;;;;;;;;5014850;28;20088;-84
2021/06/24 03:45:57;;;;;;;10.02;3.00;;;;;;;;;;5004525;28;20047;-82
2021/06/24 03:48:42;;;;;;;6.35;3.20;;;;;;;;;;5019531;28;20223;-82
2021/06/24 03:51:27;;;;;;;6.53;3.10;;;;;;;;;;5010989;28;20072;-83
2021/06/24 03:54:12;;;;;;;5.32;3.20;;;;;;;;;;5011055;28;20091;-83
2021/06/24 03:56:57;;;;;;;4.57;3.38;;;;;;;;;;5017227;28;20062;-82
2021/06/24 03:59:43;;;;;;;25.08;4.97;;;;;;;;;;5008222;28;20025;-83
2021/06/24 04:02:28;;;;;;;6.80;3.00;;;;;;;;;;4999664;28;20091;-83
2021/06/24 04:05:13;;;;;;;5.18;3.30;;;;;;;;;;5009765;28;20032;-85
2021/06/24 04:07:59;;;;;;;6.03;3.45;;;;;;;;;;5008184;28;20142;-85
2021/06/24 04:10:44;;;;;;;5.35;3.35;;;;;;;;;;5010063;28;20033;-84
2021/06/24 04:13:29;;;;;;;4.05;3.35;;;;;;;;;;5027738;28;20037;-84
2021/06/24 04:16:15;;;;;;;5.72;3.38;;;;;;;;;;5025918;28;20053;-84
2021/06/24 04:19:00;;;;;;;6.13;3.40;;;;;;;;;;5012766;28;20017;-83
2021/06/24 04:21:45;;;;;;;7.72;3.40;;;;;;;;;;5009661;28;20487;-83
2021/06/24 04:24:30;;;;;;;9.63;3.70;;;;;;;;;;5013043;28;20045;-83
2021/06/24 04:27:16;;;;;;;6.40;2.95;;;;;;;;;;4997012;28;20017;-83
2021/06/24 04:30:01;;;;;;;5.63;3.08;;;;;;;;;;5014540;28;20700;-83
2021/06/24 04:32:47;;;;;;;6.57;2.92;;;;;;;;;;5012206;28;20038;-84
2021/06/24 04:35:32;;;;;;;4.72;3.00;;;;;;;;;;5005097;28;20418;-83
2021/06/24 04:38:17;;;;;;;6.55;2.92;;;;;;;;;;5010161;28;20112;-83
2021/06/24 04:41:03;;;;;;;5.93;3.20;;;;;;;;;;4997061;28;20032;-84
2021/06/24 04:43:48;;;;;;;5.40;3.10;;;;;;;;;;5006373;28;20057;-84
2021/06/24 04:46:33;;;;;;;6.88;3.05;;;;;;;;;;5011526;28;20570;-82
2021/06/24 04:49:18;;;;;;;4.70;3.03;;;;;;;;;;5025624;28;20148;-85
2021/06/24 04:52:05;;;;;;;4.63;2.92;;;;;;;;;;5003957;28;20018;-85
2021/06/24 04:54:50;;;;;;;6.28;3.10;;;;;;;;;;5009436;28;20029;-84
2021/06/24 04:57:35;;;;;;;5.72;3.03;;;;;;;;;;5007582;28;20025;-85
2021/06/24 05:00:21;;;;;;;2.83;2.10;;;;;;;;;;5011103;28;20025;-83
2021/06/24 05:03:10;;;;;;;5.47;2.90;;;;;;;;;;5004246;28;20029;-84
2021/06/24 05:05:55;;;;;;;4.47;2.40;;;;;;;;;;5016592;28;20080;-85
2021/06/24 05:08:40;;;;;;;5.03;2.40;;;;;;;;;;5028046;28;20155;-87
2021/06/24 05:11:25;;;;;;;5.13;2.47;;;;;;;;;;5030350;28;20021;-86
2021/06/24 05:14:10;;;;;;;4.93;2.50;;;;;;;;;;5030521;28;20472;-86
2021/06/24 05:16:56;;;;;;;5.35;2.65;;;;;;;;;;5026658;28;20024;-88
2021/06/24 05:19:42;;;;;;;3.63;3.00;;;;;;;;;;5015593;28;20155;-89
2021/06/24 05:22:27;;;;;;;3.60;2.83;;;;;;;;;;5033354;28;20036;-90
2021/06/24 05:25:13;;;;;;;6.43;2.92;;;;;;;;;;5032197;28;20382;-88
2021/06/24 05:27:58;;;;;;;5.53;2.75;;;;;;;;;;5029529;28;20029;-87
2021/06/24 05:30:46;;;;;;;4.57;2.95;;;;;;;;;;5030852;28;20667;-88
2021/06/24 05:33:31;;;;;;;4.78;2.63;;;;;;;;;;5024652;28;20487;-86
2021/06/24 05:36:17;;;;;;;10.60;2.70;;;;;;;;;;5015851;28;20108;-87
2021/06/24 05:39:02;;;;;;;6.90;2.65;;;;;;;;;;5033853;28;20029;-87
2021/06/24 05:41:48;;;;;;;5.47;2.55;;;;;;;;;;5039009;28;20021;-83
2021/06/24 05:44:33;;;;;;;4.93;2.40;;;;;;;;;;5028854;28;20029;-87
2021/06/24 05:47:18;;;;;;;7.93;2.97;;;;;;;;;;5019558;28;20144;-84
2021/06/24 05:50:04;;;;;;;4.95;2.47;;;;;;;;;;5028769;28;20033;-83
2021/06/24 05:52:49;;;;;;;4.40;2.60;;;;;;;;;;5013403;28;20450;-84
2021/06/24 05:55:50;;;;;;;5.82;3.17;;;;;;;;;;5030981;28;20029;-83
2021/06/24 05:58:35;;;;;;;3.85;2.90;;;;;;;;;;5040562;28;20060;-81
2021/06/24 06:01:21;;;;;;;3.60;2.45;;;;;;;;;;5032023;28;20024;-81
2021/06/24 06:04:06;;;;;;;6.72;3.67;;;;;;;;;;5030443;28;21728;-81
2021/06/24 06:06:51;;;;;;;4.95;2.90;;;;;;;;;;5033022;28;20128;-82
2021/06/24 06:09:37;;;;;;;6.80;2.50;;;;;;;;;;5031264;28;20108;-82
2021/06/24 06:12:22;;;;;;;4.63;2.80;;;;;;;;;;5031073;28;20024;-81
2021/06/24 06:15:08;;;;;;;4.57;3.45;;;;;;;;;;5032300;28;20024;-80
2021/06/24 06:17:54;;;;;;;16.92;13.85;;;;;;;;;;5030397;28;20127;-80
2021/06/24 06:20:39;;;;;;;14.20;8.95;;;;;;;;;;5027883;28;20025;-84
2021/06/24 06:23:26;;;;;;;4.88;3.95;;;;;;;;;;5033256;28;20028;-82
2021/06/24 06:26:11;;;;;;;3.90;3.10;;;;;;;;;;5023000;28;20028;-83
2021/06/24 06:29:02;;;;;;;5.30;2.70;;;;;;;;;;5033026;28;20640;-82
2021/06/24 06:31:47;;;;;;;4.28;2.92;;;;;;;;;;5030064;28;20146;-83
2021/06/24 06:34:33;;;;;;;7.35;3.05;;;;;;;;;;5031837;28;20033;-83
2021/06/24 06:37:18;;;;;;;5.68;3.45;;;;;;;;;;5040905;28;20021;-83
2021/06/24 06:40:04;;;;;;;8.02;3.20;;;;;;;;;;5031784;28;20082;-82
2021/06/24 06:42:49;;;;;;;6.60;3.17;;;;;;;;;;5032794;28;20025;-83
2021/06/24 06:45:35;;;;;;;4.13;3.00;;;;;;;;;;5032517;28;20032;-81
2021/06/24 06:48:21;;;;;;;5.70;3.90;;;;;;;;;;5030228;28;20466;-83
2021/06/24 06:51:06;;;;;;;8.52;4.47;;;;;;;;;;5028608;28;20526;-81
2021/06/24 06:53:52;;;;;;;6.97;3.47;;;;;;;;;;5032218;28;20473;-85
2021/06/24 06:56:37;;;;;;;6.25;3.47;;;;;;;;;;5025337;28;20537;-84
2021/06/24 06:59:23;;;;;;;4.68;3.63;;;;;;;;;;5032609;28;20060;-85
2021/06/24 07:02:08;;;;;;;4.07;3.28;;;;;;;;;;5032555;28;20079;-85
2021/06/24 07:04:54;;;;;;;4.00;3.22;;;;;;;;;;5030191;28;20029;-82
2021/06/24 07:07:39;;;;;;;5.13;2.70;;;;;;;;;;5029519;28;20048;-82
2021/06/24 07:10:25;;;;;;;5.30;3.50;;;;;;;;;;5015085;28;20060;-82
2021/06/24 07:13:11;;;;;;;4.93;2.88;;;;;;;;;;5026347;28;20375;-84
2021/06/24 07:15:57;;;;;;;5.10;2.80;;;;;;;;;;5031292;28;20025;-84
2021/06/24 07:18:42;;;;;;;4.72;3.50;;;;;;;;;;5030519;28;20056;-81
2021/06/24 07:21:28;;;;;;;3.97;2.72;;;;;;;;;;5032962;28;20017;-81
2021/06/24 07:24:14;;;;;;;5.00;2.92;;;;;;;;;;5032933;28;20025;-81
2021/06/24 07:27:00;;;;;;;4.97;3.38;;;;;;;;;;5028316;28;20053;-82
2021/06/24 07:29:45;;;;;;;6.55;3.42;;;;;;;;;;5033380;28;20394;-82
2021/06/24 07:32:30;;;;;;;8.23;3.42;;;;;;;;;;5024271;28;20032;-82
2021/06/24 07:35:16;;;;;;;5.10;3.20;;;;;;;;;;5027662;28;20396;-84
2021/06/24 07:38:01;;;;;;;3.28;2.67;;;;;;;;;;5026083;28;20025;-83
2021/06/24 07:40:47;;;;;;;5.22;2.70;;;;;;;;;;5029610;28;20362;-81
2021/06/24 07:43:32;;;;;;;4.70;2.70;;;;;;;;;;5026337;28;20051;-85
2021/06/24 07:46:17;;;;;;;4.03;2.47;;;;;;;;;;5034332;28;20040;-87
2021/06/24 07:49:02;;;;;;;4.07;2.83;;;;;;;;;;5030047;28;20111;-85
2021/06/24 07:51:48;;;;;;;3.25;2.40;;;;;;;;;;5030162;28;20021;-88
2021/06/24 07:54:33;;;;;;;5.55;2.40;;;;;;;;;;5029889;28;20040;-88
2021/06/24 07:57:19;;;;;;;3.92;2.58;;;;;;;;;;5027413;28;20705;-86
2021/06/24 08:00:08;;;;;;;14.65;12.30;;;;;;;;;;5028855;28;20036;-82
2021/06/24 08:02:53;;;;;;;5.45;4.05;;;;;;;;;;5033166;28;20031;-83
2021/06/24 08:05:39;;;;;;;4.80;2.88;;;;;;;;;;5026595;28;20453;-84
2021/06/24 08:08:24;;;;;;;4.70;2.88;;;;;;;;;;5011928;28;20021;-86
2021/06/24 08:11:10;;;;;;;5.00;2.95;;;;;;;;;;5015403;28;20489;-81
2021/06/24 08:13:55;;;;;;;4.03;2.45;;;;;;;;;;5011827;28;20029;-81
2021/06/24 08:16:40;;;;;;;4.15;2.60;;;;;;;;;;5012815;28;20509;-80
2021/06/24 08:19:26;;;;;;;12.80;8.98;;;;;;;;;;5007043;28;20025;-82
2021/06/24 08:22:11;;;;;;;4.38;3.40;;;;;;;;;;5009768;28;20026;-81
2021/06/24 08:24:56;;;;;;;3.85;2.92;;;;;;;;;;5015562;28;20676;-81
2021/06/24 08:27:42;;;;;;;3.08;2.38;;;;;;;;;;5000864;28;20024;-82
2021/06/24 08:30:27;;;;;;;4.50;2.38;;;;;;;;;;5014617;28;20116;-84
2021/06/24 08:33:12;;;;;;;3.28;2.50;;;;;;;;;;4993304;28;20026;-80
2021/06/24 08:35:58;;;;;;;4.38;2.80;;;;;;;;;;5008069;28;20056;-80
2021/06/24 08:38:44;;;;;;;2.20;2.00;;;;;;;;;;5012186;28;20104;-80
2021/06/24 08:41:29;;;;;;;5.80;2.15;;;;;;;;;;5002843;28;20030;-80
2021/06/24 08:44:18;;;;;;;5.25;2.42;;;;;;;;;;5018363;28;20034;-79
2021/06/24 08:47:04;;;;;;;2.53;2.10;;;;;;;;;;5002205;28;20028;-80
2021/06/24 08:49:50;;;;;;;3.00;2.17;;;;;;;;;;4996750;28;20174;-80
2021/06/24 08:52:36;;;;;;;2.63;2.08;;;;;;;;;;5000054;28;20127;-82
2021/06/24 08:55:21;;;;;;;3.67;2.00;;;;;;;;;;5004509;28;20500;-80
2021/06/24 08:58:09;;;;;;;3.30;1.90;;;;;;;;;;5019833;28;20036;-81
2021/06/24 09:00:55;;;;;;;13.15;11.15;;;;;;;;;;5010464;28;20032;-82
2021/06/24 09:03:41;;;;;;;10.07;6.03;;;;;;;;;;5014297;28;20026;-81
2021/06/24 09:06:35;;;;;;;4.00;2.75;;;;;;;;;;5006059;28;20045;-83
2021/06/24 09:09:24;;;;;;;4.15;2.40;;;;;;;;;;5012539;28;20064;-83
2021/06/24 09:12:10;;;;;;;2.92;2.00;;;;;;;;;;5008837;28;20055;-83
2021/06/24 09:15:00;;;;;;;7.47;2.58;;;;;;;;;;5012697;28;20074;-82
2021/06/24 09:17:46;;;;;;;4.15;2.28;;;;;;;;;;5009399;28;20064;-84
2021/06/24 09:20:33;;;;;;;2.97;2.40;;;;;;;;;;4995564;28;20041;-83
2021/06/24 09:23:19;;;;;;;5.82;2.20;;;;;;;;;;5011312;28;20132;-83
2021/06/24 09:26:14;;;;;;;6.32;3.00;;;;;;;;;;5011801;28;20244;-83
2021/06/24 09:29:03;;;;;;;3.08;2.13;;;;;;;;;;5010183;28;20498;-83
2021/06/24 09:31:50;;;;;;;5.72;2.13;;;;;;;;;;5008977;28;20025;-83
2021/06/24 09:34:37;;;;;;;3.20;1.83;;;;;;;;;;5014151;28;20033;-81
2021/06/24 09:37:23;;;;;;;5.45;2.10;;;;;;;;;;5010130;28;20353;-81
2021/06/24 09:40:12;;;;;;;7.82;5.32;;;;;;;;;;5003105;28;20038;-83
2021/06/24 09:42:58;;;;;;;3.33;2.65;;;;;;;;;;5009764;28;20041;-82
2021/06/24 09:45:58;;;;;;;3.00;2.08;;;;;;;;;;5012398;28;20387;-82
2021/06/24 09:48:45;;;;;;;4.72;2.30;;;;;;;;;;5007073;28;20522;-81
2021/06/24 09:51:34;;;;;;;3.15;2.47;;;;;;;;;;5005659;28;20025;-82
2021/06/24 09:54:28;;;;;;;6.60;2.78;;;;;;;;;;5008157;28;20029;-82
2021/06/24 09:57:23;;;;;;;6.82;2.60;;;;;;;;;;5014965;28;20064;-85
2021/06/24 10:00:23;;;;;;;5.20;2.53;;;;;;;;;;5009700;28;20037;-83
2021/06/24 10:03:11;;;;;;;3.50;2.38;;;;;;;;;;4994700;28;20024;-83
2021/06/24 10:05:57;;;;;;;4.38;2.60;;;;;;;;;;4998568;28;20501;-85
2021/06/24 10:08:54;;;;;;;2.38;1.95;;;;;;;;;;5031166;28;20037;-84
2021/06/24 10:11:40;;;;;;;5.57;2.90;;;;;;;;;;5008217;28;20121;-81
2021/06/24 10:14:27;;;;;;;3.92;2.10;;;;;;;;;;5026190;28;20486;-79
2021/06/24 10:17:15;;;;;;;2.97;2.40;;;;;;;;;;5024897;28;20017;-79
2021/06/24 10:20:01;;;;;;;5.68;2.78;;;;;;;;;;5023604;28;20028;-78
2021/06/24 10:22:50;;;;;;;3.13;1.70;;;;;;;;;;5026900;28;20716;-77
2021/06/24 10:25:35;;;;;;;;;;;;;;;;;;5018646;28;20104;-80
2021/06/24 10:28:21;;;;;;;5.78;2.10;;;;;;;;;;5034576;28;20270;-78
2021/06/24 10:31:06;;;;;;;4.90;2.38;;;;;;;;;;5028590;28;20040;-79
2021/06/24 10:33:55;;;;;;;3.88;2.22;;;;;;;;;;5028404;28;20849;-78
2021/06/24 10:36:40;;;;;;;;;;;;;;;;;;5011770;28;20056;-79
2021/06/24 10:39:33;;;;;;;5.18;1.75;;;;;;;;;;5027631;28;19991;-79
2021/06/24 10:42:18;;;;;;;2.85;1.92;;;;;;;;;;5031380;28;20104;-81
2021/06/24 10:45:04;;;;;;;2.72;1.83;;;;;;;;;;5023004;28;20061;-80
2021/06/24 10:47:50;;;;;;;5.28;2.15;;;;;;;;;;5035134;28;20412;-81
2021/06/24 10:50:39;;;;;;;1.92;1.63;;;;;;;;;;5023689;28;20444;-80
2021/06/24 10:53:24;;;;;;;4.30;1.77;;;;;;;;;;5009837;28;20455;-80
2021/06/24 10:56:25;;;;;;;3.90;1.60;;;;;;;;;;5011572;28;20139;-81
2021/06/24 10:59:29;;;;;;;2.05;1.50;;;;;;;;;;5034583;28;20108;-90
2021/06/24 11:02:14;;;;;;;3.00;1.83;;;;;;;;;;5046016;28;20506;-88
2021/06/24 11:05:13;;;;;;;3.22;1.58;;;;;;;;;;5039170;28;20454;-82
2021/06/24 11:08:01;;;;;;;;;;;;;;;;;;5009464;28;20053;-84
2021/06/24 11:11:09;;;;;;;2.65;1.58;;;;;;;;;;5014325;28;19913;-83
2021/06/24 11:13:54;;;;;;;1.27;1.10;;;;;;;;;;5027869;28;20025;-82
2021/06/24 11:16:39;;;;;;;2.42;1.30;;;;;;;;;;5011916;28;20079;-83
2021/06/24 11:19:25;;;;;;;3.40;1.23;;;;;;;;;;5029793;28;20040;-83
2021/06/24 11:22:10;;;;;;;3.30;1.48;;;;;;;;;;5022815;28;20433;-81
2021/06/24 11:24:56;;;;;;;3.58;1.50;;;;;;;;;;5031032;28;20036;-82
2021/06/24 11:27:42;;;;;;;1.77;1.67;;;;;;;;;;5028503;28;20031;-82
2021/06/24 11:30:46;;;;;;;1.73;1.42;;;;;;;;;;5034642;28;20040;-81
2021/06/24 11:33:33;;;;;;;3.47;1.40;;;;;;;;;;5029896;28;20125;-81
2021/06/24 11:36:21;;;;;;;2.55;1.50;;;;;;;;;;5028898;28;20025;-82
2021/06/24 11:39:06;;;;;;;5.80;4.55;;;;;;;;;;5032518;28;20044;-83
2021/06/24 11:41:52;;;;;;;4.65;3.88;;;;;;;;;;5025609;28;20017;-84
2021/06/24 11:44:47;;;;;;;1.88;1.67;;;;;;;;;;5031245;28;20052;-82
2021/06/24 11:47:39;;;;;;;1.98;1.40;;;;;;;;;;5019387;28;20497;-83
2021/06/24 12:03:08;;;;;;;2.10;1.58;;;;;;;;;;5041331;28;20025;-83
2021/06/24 12:05:55;;;;;;;1.42;1.30;;;;;;;;;;5029774;28;20048;-84
2021/06/24 12:08:41;;;;;;;1.70;1.33;;;;;;;;;;5025701;28;20079;-84
2021/06/24 12:11:34;;;;;;;1.63;1.40;;;;;;;;;;5028934;28;20055;-79
2021/06/24 12:14:24;;;;;;;2.38;1.30;;;;;;;;;;5023503;28;20041;-81
2021/06/24 12:17:26;;;;;;;1.65;1.38;;;;;;;;;;5032486;28;20060;-82
2021/06/24 12:20:15;;;;;;;2.47;1.27;;;;;;;;;;5025984;28;20039;-84
2021/06/24 12:23:02;;;;;;;2.25;1.30;;;;;;;;;;5015912;28;20482;-86
2021/06/24 12:25:48;;;;;;;2.65;1.40;;;;;;;;;;5027922;28;20059;-86
2021/06/24 12:28:33;;;;;;;1.45;1.10;;;;;;;;;;5009853;28;20047;-84
2021/06/24 12:31:18;;;;;;;1.95;1.30;;;;;;;;;;5018116;28;20029;-81
2021/06/24 12:34:05;;;;;;;2.25;1.00;;;;;;;;;;5022798;28;20029;-84
2021/06/24 12:36:50;;;;;;;1.63;1.02;;;;;;;;;;5027977;28;20021;-85
2021/06/24 12:39:35;;;;;;;3.53;1.10;;;;;;;;;;5018027;28;20024;-80
2021/06/24 12:42:22;;;;;;;3.42;0.90;;;;;;;;;;5029284;28;20017;-80
2021/06/24 12:45:07;;;;;;;2.38;1.20;;;;;;;;;;5027490;28;20111;-79
2021/06/24 12:47:53;;;;;;;25.58;22.88;;;;;;;;;;5018006;28;20040;-78
2021/06/24 12:50:43;;;;;;;1.90;1.30;;;;;;;;;;5014881;28;20071;-78
2021/06/24 12:53:33;;;;;;;1.27;1.10;;;;;;;;;;5027102;28;20075;-76
2021/06/24 12:56:26;;;;;;;1.35;0.90;;;;;;;;;;5027437;28;20017;-77
2021/06/24 12:59:20;;;;;;;2.80;1.30;;;;;;;;;;5027530;28;20017;-78
2021/06/24 13:02:06;;;;;;;4.15;1.23;;;;;;;;;;5026761;28;20059;-77
2021/06/24 13:04:51;;;;;;;0.90;0.90;;;;;;;;;;5030577;28;20099;-76
2021/06/24 13:07:56;;;;;;;1.00;0.90;;;;;;;;;;5029115;28;20041;-77
2021/06/24 13:10:45;;;;;;;1.15;1.05;;;;;;;;;;5006777;28;20061;-77
2021/06/24 13:13:32;;;;;;;3.33;1.30;;;;;;;;;;5027877;28;20044;-76
2021/06/24 13:16:21;;;;;;;1.58;0.98;;;;;;;;;;5027326;28;20079;-76
2021/06/24 13:19:11;;;;;;;4.05;1.10;;;;;;;;;;5026833;28;20124;-77
2021/06/24 13:21:57;;;;;;;3.08;1.23;;;;;;;;;;5026929;28;20033;-78
2021/06/24 13:24:50;;;;;;;1.92;1.10;;;;;;;;;;5019949;28;20044;-78
2021/06/24 13:27:36;;;;;;;1.92;1.73;;;;;;;;;;5009294;28;20029;-78
2021/06/24 13:30:22;;;;;;;2.05;1.10;;;;;;;;;;5030323;28;20116;-77
2021/06/24 13:33:08;;;;;;;4.63;2.45;;;;;;;;;;5026719;28;20032;-77
2021/06/24 13:35:53;;;;;;;2.53;1.85;;;;;;;;;;5034950;28;20024;-77
2021/06/24 13:38:59;;;;;;;2.63;1.50;;;;;;;;;;5023525;28;20603;-78
2021/06/24 13:41:45;;;;;;;1.88;1.60;;;;;;;;;;5037646;28;20036;-74
2021/06/24 13:44:30;;;;;;;4.57;1.70;;;;;;;;;;5027110;28;20028;-76
2021/06/24 13:47:16;;;;;;;2.38;1.60;;;;;;;;;;5026021;28;20025;-75
2021/06/24 13:50:01;;;;;;;8.63;1.42;;;;;;;;;;5029966;28;20025;-76
2021/06/24 13:52:46;;;;;;;5.07;1.75;;;;;;;;;;5011036;28;20033;-79
2021/06/24 13:55:38;;;;;;;3.03;1.15;;;;;;;;;;5024308;28;20035;-76
2021/06/24 13:58:25;;;;;;;13.75;11.07;;;;;;;;;;5014226;28;20017;-80
2021/06/24 14:01:10;;;;;;;2.60;1.27;;;;;;;;;;5024334;28;20025;-81
2021/06/24 14:03:55;;;;;;;2.55;1.40;;;;;;;;;;5015383;28;20022;-80
2021/06/24 14:06:41;;;;;;;3.20;1.50;;;;;;;;;;5013084;28;20123;-82
2021/06/24 14:09:27;;;;;;;1.88;1.17;;;;;;;;;;5017576;28;20056;-82
2021/06/24 14:12:12;;;;;;;2.25;1.30;;;;;;;;;;5027119;28;20168;-82
2021/06/24 14:14:58;;;;;;;4.65;1.70;;;;;;;;;;5026331;28;20119;-82
2021/06/24 14:17:45;;;;;;;5.32;1.77;;;;;;;;;;5038959;28;20024;-83
2021/06/24 14:20:32;;;;;;;2.42;1.38;;;;;;;;;;5038783;28;20074;-83
2021/06/24 14:23:18;;;;;;;3.83;1.67;;;;;;;;;;5030640;28;20025;-83
2021/06/24 14:26:05;;;;;;;3.33;1.60;;;;;;;;;;5007208;28;20026;-81
2021/06/24 14:28:51;;;;;;;4.57;1.70;;;;;;;;;;5022625;28;20364;-82
2021/06/24 14:31:37;;;;;;;5.70;2.25;;;;;;;;;;5025661;28;20712;-82
2021/06/24 14:34:23;;;;;;;8.95;4.10;;;;;;;;;;5025057;28;20833;-81
2021/06/24 14:37:08;;;;;;;6.70;2.08;;;;;;;;;;5032772;28;20032;-82
2021/06/24 14:39:54;;;;;;;5.38;1.88;;;;;;;;;;5030572;28;20017;-83
2021/06/24 14:42:39;;;;;;;10.13;2.13;;;;;;;;;;5029333;28;20470;-82
2021/06/24 14:45:24;;;;;;;2.88;1.63;;;;;;;;;;5032613;28;20206;-81
2021/06/24 14:48:09;;;;;;;3.63;1.42;;;;;;;;;;5031816;28;21715;-81
2021/06/24 14:50:55;;;;;;;3.05;1.77;;;;;;;;;;5029046;28;20142;-81
2021/06/24 14:53:44;;;;;;;4.93;1.80;;;;;;;;;;5019699;28;20025;-82
2021/06/24 14:56:29;;;;;;;1.58;1.23;;;;;;;;;;5032024;28;20155;-88
2021/06/24 14:59:15;;;;;;;3.00;1.60;;;;;;;;;;5034963;28;20025;-86
2021/06/24 15:02:00;;;;;;;2.90;1.85;;;;;;;;;;5035384;28;20586;-85
2021/06/24 15:04:48;;;;;;;4.75;1.70;;;;;;;;;;5021395;28;20025;-85
2021/06/24 15:07:33;;;;;;;13.65;9.73;;;;;;;;;;5025041;28;20814;-85
2021/06/24 15:10:19;;;;;;;4.50;1.88;;;;;;;;;;5030346;28;20588;-86
2021/06/24 15:13:05;;;;;;;2.95;1.98;;;;;;;;;;5013988;28;20470;-85
2021/06/24 15:15:50;;;;;;;4.07;1.90;;;;;;;;;;5030128;28;20030;-87
2021/06/24 15:18:35;;;;;;;3.22;1.67;;;;;;;;;;5034129;28;20116;-84
2021/06/24 15:21:21;;;;;;;3.80;1.90;;;;;;;;;;5018887;28;20114;-82
2021/06/24 15:24:06;;;;;;;3.40;1.60;;;;;;;;;;5029523;28;20523;-82
2021/06/24 15:26:51;;;;;;;4.88;1.98;;;;;;;;;;5034995;28;20066;-87
2021/06/24 15:29:40;;;;;;;2.90;1.83;;;;;;;;;;5025231;28;20096;-84
2021/06/24 15:32:26;;;;;;;3.38;1.88;;;;;;;;;;5030703;28;20181;-85
2021/06/24 15:35:20;;;;;;;3.67;2.00;;;;;;;;;;5042927;28;20029;-85
2021/06/24 15:38:35;;;;;;;2.70;1.52;;;;;;;;;;5036914;28;20071;-92
2021/06/24 15:41:24;;;;;;;3.00;1.38;;;;;;;;;;5023507;28;20052;-86
2021/06/24 15:44:12;;;;;;;2.25;1.60;;;;;;;;;;5032528;28;20028;-85
2021/06/24 15:46:57;;;;;;;3.42;2.22;;;;;;;;;;5029867;28;20449;-84
2021/06/24 15:49:43;;;;;;;3.85;2.08;;;;;;;;;;5021608;28;20470;-84
2021/06/24 15:52:31;;;;;;;2.60;1.90;;;;;;;;;;5030073;28;20033;-85
2021/06/24 15:55:17;;;;;;;2.88;2.10;;;;;;;;;;5030489;28;20483;-85
2021/06/24 15:58:02;;;;;;;19.25;14.45;;;;;;;;;;5025637;28;20025;-84
2021/06/24 16:00:48;;;;;;;7.55;5.63;;;;;;;;;;5032422;28;20098;-85
2021/06/24 16:03:33;;;;;;;3.90;2.35;;;;;;;;;;5026393;28;20082;-84
2021/06/24 16:06:18;;;;;;;3.95;2.42;;;;;;;;;;5027621;28;20049;-85
2021/06/24 16:09:07;;;;;;;3.67;2.97;;;;;;;;;;5027742;28;20025;-84
2021/06/24 16:11:56;;;;;;;3.08;2.72;;;;;;;;;;5031281;28;20071;-85
2021/06/24 16:14:41;;;;;;;4.20;2.88;;;;;;;;;;5027744;28;20420;-84
2021/06/24 16:17:26;;;;;;;3.15;2.63;;;;;;;;;;5027367;28;20021;-84
2021/06/24 16:20:13;;;;;;;5.82;2.75;;;;;;;;;;5017381;28;20037;-84
2021/06/24 16:22:58;;;;;;;4.93;3.33;;;;;;;;;;5026313;28;20053;-84
2021/06/24 16:25:44;;;;;;;4.05;2.70;;;;;;;;;;5037783;28;20091;-84
2021/06/24 16:28:29;;;;;;;5.95;2.88;;;;;;;;;;5034492;28;20222;-84
2021/06/24 16:31:14;;;;;;;5.28;3.30;;;;;;;;;;5012934;28;20013;-83
2021/06/24 16:34:00;;;;;;;7.55;3.65;;;;;;;;;;5026392;28;20029;-84
2021/06/24 16:36:47;;;;;;;4.93;3.88;;;;;;;;;;5019530;28;20666;-85
2021/06/24 16:39:33;;;;;;;5.20;3.80;;;;;;;;;;5026868;28;20486;-85
2021/06/24 16:42:19;;;;;;;6.30;3.80;;;;;;;;;;5031409;28;20048;-84
2021/06/24 16:45:05;;;;;;;9.80;4.30;;;;;;;;;;5025259;28;20032;-84
2021/06/24 16:47:50;;;;;;;5.90;3.55;;;;;;;;;;5028925;28;20025;-84
2021/06/24 16:50:36;;;;;;;5.00;3.35;;;;;;;;;;5026093;28;20029;-84
2021/06/24 16:53:22;;;;;;;4.57;3.00;;;;;;;;;;5027267;28;20125;-83
2021/06/24 16:56:07;;;;;;;4.20;3.08;;;;;;;;;;5019565;28;20387;-85
2021/06/24 16:58:53;;;;;;;4.88;3.08;;;;;;;;;;5031840;28;20051;-85